Decoded Metar for EYPA (PALANGA INTL in LITHUANIA) (IATA:N/A) | Meteo·Mobile Aviation Weather
aviador You're here:

EYPA Decoded Metar

PALANGA INTL in LITHUANIA
Report Time2018-10-20 05:50:00
UTC Time2018-10-20 06:15:57
Flight Rules vfr VFR
Wind160° at 02 kt
W.Decomp.*RWY 19: 1.7 kt HW 1.1 kt LCW
W.Rank160° ranks 1
Current wind is below 160° avg. (7.2)
Visibility9000 m
Phenomena:N/A
Clouds:Scattered 027 Hf
Broken 030 Hf
Broken 140 Hf
Ceiling3,000 ft
Temp03°C (ISA -12)
Dew Point03°C (100% RH)
AAT0.8°C
QNH1022 hPa
Density Alt-1,621 ft
Elevation33 ft
Report Wrong Elevation
Raw Report
EYPA 200550Z 16002KT 9000 SCT027 BKN030 BKN140 03/03 Q1022=

Extra information for EYPA:More info

Metar Taf Metar & Taf Last 4 Metars F.Rules Stats Wind Profile Meteogram Temp Stats Airport Information Weather charts Add Link Nearby VenuesMetar ALERT Operation Metar Decoded Social comments